Time;durP1;ratioP1;P1;durP2;ratioP2;P2;SDS_P1;SDS_P2;PMS_P1;PMS_P2;Temp;Humidity;BMP_temperature;BMP_pressure;BME280_temperature;BME280_humidity;BME280_pressure;Samples;Min_cycle;Max_cycle;Signal;HPM_P1;HPM_P2
2023/10/02 00:01:24;;;;;;;21.00;9.68;;;11.60;99.90;;;;;;5034417;28;20029;-76
2023/10/02 00:04:16;;;;;;;28.10;10.93;;;11.60;99.90;;;;;;5034327;28;20029;-76
2023/10/02 00:06:37;;;;;;;24.08;9.90;;;11.60;99.90;;;;;;5033962;28;20033;-76
2023/10/02 00:09:04;;;;;;;24.45;10.65;;;11.50;99.90;;;;;;5034434;28;20038;-76
2023/10/02 00:11:36;;;;;;;21.52;9.20;;;11.50;99.90;;;;;;5034280;28;20045;-76
2023/10/02 00:14:18;;;;;;;19.95;9.52;;;11.50;99.90;;;;;;5034316;28;20112;-76
2023/10/02 00:16:58;;;;;;;20.98;9.02;;;11.40;99.90;;;;;;5034201;28;20030;-75
2023/10/02 00:19:27;;;;;;;23.00;9.27;;;11.40;99.90;;;;;;5034381;28;20026;-76
2023/10/02 00:22:05;;;;;;;23.55;9.15;;;11.40;99.90;;;;;;5016732;28;20061;-76
2023/10/02 00:24:38;;;;;;;22.17;9.48;;;11.40;99.90;;;;;;5034107;28;20060;-76
2023/10/02 00:27:08;;;;;;;23.65;9.32;;;11.40;99.90;;;;;;5034063;28;20114;-75
2023/10/02 00:29:35;;;;;;;20.60;8.60;;;11.30;99.90;;;;;;5016134;28;20021;-76
2023/10/02 00:32:10;;;;;;;20.63;7.88;;;11.20;99.90;;;;;;5012308;28;20030;-75
2023/10/02 00:34:38;;;;;;;21.17;8.65;;;11.20;99.90;;;;;;5014466;28;20026;-75
2023/10/02 00:37:06;;;;;;;19.98;8.43;;;11.20;99.90;;;;;;5014319;28;20387;-75
2023/10/02 00:39:35;;;;;;;22.27;8.55;;;11.10;99.90;;;;;;5014000;28;20549;-76
2023/10/02 00:42:15;;;;;;;24.02;9.13;;;11.10;99.90;;;;;;5014091;28;20041;-75
2023/10/02 00:44:51;;;;;;;25.33;9.47;;;11.10;99.90;;;;;;5014293;28;20029;-75
2023/10/02 00:47:50;;;;;;;22.67;9.32;;;11.00;99.90;;;;;;4996632;28;20453;-75
2023/10/02 00:50:23;;;;;;;26.75;9.95;;;11.00;99.90;;;;;;5014201;28;20430;-75
2023/10/02 00:52:58;;;;;;;20.23;9.00;;;11.00;99.90;;;;;;5013620;28;20079;-76
2023/10/02 00:55:35;;;;;;;20.23;8.68;;;11.00;99.90;;;;;;5014113;28;20037;-76
2023/10/02 00:58:05;;;;;;;21.65;8.18;;;11.00;99.90;;;;;;5013720;28;20364;-76
2023/10/02 01:00:35;;;;;;;22.73;9.50;;;11.00;99.90;;;;;;5013836;28;20429;-76
2023/10/02 01:03:14;;;;;;;21.73;8.87;;;11.00;99.90;;;;;;5026488;28;20026;-76
2023/10/02 01:05:50;;;;;;;26.80;9.45;;;10.90;99.90;;;;;;5033435;28;20617;-75
2023/10/02 01:08:24;;;;;;;21.38;10.05;;;10.90;99.90;;;;;;5032737;28;20025;-76
2023/10/02 01:10:58;;;;;;;23.67;9.63;;;10.90;99.90;;;;;;5033331;28;20067;-76
2023/10/02 01:13:35;;;;;;;20.33;8.15;;;10.80;99.90;;;;;;5033314;28;20018;-76
2023/10/02 01:16:07;;;;;;;21.30;8.32;;;10.70;99.90;;;;;;5033360;28;20025;-76
2023/10/02 01:18:34;;;;;;;21.52;9.25;;;10.70;99.90;;;;;;5033199;28;20038;-76
2023/10/02 01:21:01;;;;;;;22.02;8.70;;;10.70;99.90;;;;;;5015745;28;20037;-76
2023/10/02 01:23:33;;;;;;;18.65;8.52;;;10.70;99.90;;;;;;5013607;28;20491;-76
2023/10/02 01:26:01;;;;;;;20.85;7.55;;;10.60;99.90;;;;;;5031923;28;20501;-76
2023/10/02 01:28:32;;;;;;;20.95;8.07;;;10.60;99.90;;;;;;5033302;28;20033;-76
2023/10/02 01:31:01;;;;;;;20.15;8.63;;;10.60;99.90;;;;;;5017131;28;20029;-76
2023/10/02 01:33:27;;;;;;;27.02;8.93;;;10.50;99.90;;;;;;5029034;28;20034;-76
2023/10/02 01:35:56;;;;;;;22.48;8.48;;;10.50;99.90;;;;;;5028668;28;20044;-76
2023/10/02 01:38:33;;;;;;;19.27;8.05;;;10.50;99.90;;;;;;5021182;28;20018;-77
2023/10/02 01:41:03;;;;;;;21.88;8.80;;;10.50;99.90;;;;;;5013278;28;20040;-77
2023/10/02 01:43:33;;;;;;;19.85;8.35;;;10.50;99.90;;;;;;5032719;28;20058;-76
2023/10/02 01:46:03;;;;;;;20.02;8.68;;;10.40;99.90;;;;;;5032234;28;20096;-76
2023/10/02 01:48:48;;;;;;;20.05;9.05;;;10.40;99.90;;;;;;4996616;28;20030;-76
2023/10/02 01:51:25;;;;;;;23.35;9.45;;;10.40;99.90;;;;;;5006316;28;20022;-76
2023/10/02 01:54:00;;;;;;;23.77;9.50;;;10.30;99.90;;;;;;5016816;28;20036;-76
2023/10/02 01:56:31;;;;;;;21.60;8.93;;;10.30;99.90;;;;;;5021412;28;20516;-76
2023/10/02 01:59:08;;;;;;;20.20;8.50;;;10.30;99.90;;;;;;5041311;28;20072;-79
2023/10/02 02:01:46;;;;;;;20.02;8.13;;;10.30;99.90;;;;;;5041306;28;20030;-79
2023/10/02 02:04:14;;;;;;;25.60;9.15;;;10.20;99.90;;;;;;5040363;28;20540;-79
2023/10/02 02:06:51;;;;;;;22.27;8.95;;;10.20;99.90;;;;;;5039053;28;20030;-79
2023/10/02 02:09:24;;;;;;;24.88;9.40;;;10.20;99.90;;;;;;5039235;28;20030;-79
2023/10/02 02:12:13;;;;;;;23.90;9.50;;;10.10;99.90;;;;;;5035251;28;20026;-79
2023/10/02 02:14:50;;;;;;;23.23;10.75;;;10.10;99.90;;;;;;5020801;28;20029;-79
2023/10/02 02:17:17;;;;;;;25.38;10.20;;;10.10;99.90;;;;;;5022526;28;20021;-79
2023/10/02 02:19:48;;;;;;;24.13;10.02;;;10.10;99.90;;;;;;5029875;28;20109;-79
2023/10/02 02:22:26;;;;;;;21.95;9.25;;;10.10;99.90;;;;;;5023480;28;20026;-79
2023/10/02 02:24:55;;;;;;;30.13;9.63;;;10.10;99.90;;;;;;5043566;28;20021;-79
2023/10/02 02:27:21;;;;;;;25.00;9.35;;;10.00;99.90;;;;;;5044658;28;20025;-79
2023/10/02 02:29:48;;;;;;;26.27;10.43;;;10.00;99.90;;;;;;5043645;28;20026;-79
2023/10/02 02:32:19;;;;;;;24.42;9.55;;;10.00;99.90;;;;;;5044629;28;20075;-79
2023/10/02 02:35:00;;;;;;;23.17;9.00;;;10.00;99.90;;;;;;5044047;28;20038;-79
2023/10/02 02:37:28;;;;;;;23.35;8.50;;;9.90;99.90;;;;;;5025817;28;20029;-79
2023/10/02 02:40:21;;;;;;;24.80;9.32;;;9.90;99.90;;;;;;5043731;28;20032;-79
2023/10/02 02:42:41;;;;;;;19.67;8.20;;;9.90;99.90;;;;;;5043199;28;20045;-79
2023/10/02 02:45:24;;;;;;;23.13;8.55;;;9.90;99.90;;;;;;5042995;28;20022;-79
2023/10/02 02:47:54;;;;;;;19.92;8.70;;;9.80;99.90;;;;;;5042699;28;20172;-79
2023/10/02 02:50:33;;;;;;;19.60;8.00;;;9.80;99.90;;;;;;5043572;28;20025;-79
2023/10/02 02:53:17;;;;;;;18.48;7.32;;;9.80;99.90;;;;;;5021865;28;20433;-79
2023/10/02 02:55:58;;;;;;;21.17;7.88;;;9.70;99.90;;;;;;5027184;28;20099;-79
2023/10/02 02:58:25;;;;;;;;;;;9.70;99.90;;;;;;5041713;28;20032;-79
2023/10/02 03:00:53;;;;;;;17.08;6.88;;;9.70;99.90;;;;;;5037975;28;19913;-79
2023/10/02 03:03:33;;;;;;;19.77;7.53;;;9.70;99.90;;;;;;5037377;28;20026;-79
2023/10/02 03:05:58;;;;;;;19.20;8.00;;;9.70;99.90;;;;;;5042705;28;20056;-79
2023/10/02 03:08:37;;;;;;;20.60;8.23;;;9.70;99.90;;;;;;5042756;28;20025;-79
2023/10/02 03:11:06;;;;;;;19.65;8.50;;;9.60;99.90;;;;;;5024643;28;20508;-79
2023/10/02 03:13:35;;;;;;;20.20;7.90;;;9.60;99.90;;;;;;5042847;28;20037;-79
2023/10/02 03:16:08;;;;;;;21.40;8.55;;;9.60;99.90;;;;;;5042703;28;20025;-79
2023/10/02 03:18:36;;;;;;;23.83;7.85;;;9.60;99.90;;;;;;5042213;28;20025;-79
2023/10/02 03:21:25;;;;;;;22.23;8.75;;;9.60;99.90;;;;;;5043439;28;20049;-79
2023/10/02 03:23:58;;;;;;;20.08;8.30;;;9.50;99.90;;;;;;5042591;28;20107;-79
2023/10/02 03:26:44;;;;;;;23.63;8.73;;;9.50;99.90;;;;;;5043617;28;20032;-79
2023/10/02 03:29:21;;;;;;;26.77;10.02;;;9.50;99.90;;;;;;5043095;28;20033;-79
2023/10/02 03:31:51;;;;;;;23.40;8.65;;;9.40;99.90;;;;;;5044463;28;20021;-79
2023/10/02 03:34:34;;;;;;;21.30;8.65;;;9.40;99.90;;;;;;5033683;28;20052;-80
2023/10/02 03:37:08;;;;;;;21.85;8.38;;;9.40;99.90;;;;;;5047005;28;20025;-79
2023/10/02 03:42:22;;;;;;;21.05;8.70;;;9.30;99.90;;;;;;5042319;28;20432;-79
2023/10/02 03:44:59;;;;;;;19.92;8.15;;;9.30;99.90;;;;;;5042297;28;20030;-79
2023/10/02 03:47:33;;;;;;;21.42;8.98;;;9.30;99.90;;;;;;5042485;28;20071;-79
2023/10/02 03:50:03;;;;;;;20.17;8.85;;;9.30;99.90;;;;;;5042108;28;20113;-79
2023/10/02 03:52:31;;;;;;;21.02;8.23;;;9.30;99.90;;;;;;5024633;28;20025;-79
2023/10/02 03:55:02;;;;;;;21.90;8.90;;;9.30;99.90;;;;;;5042046;28;20104;-79
2023/10/02 04:00:23;;;;;;;29.08;10.20;;;9.20;99.90;;;;;;5027094;28;20100;-79
2023/10/02 04:02:51;;;;;;;24.60;9.63;;;9.20;99.90;;;;;;5041584;28;20433;-79
2023/10/02 04:05:42;;;;;;;25.75;9.75;;;9.20;99.90;;;;;;5023029;28;20033;-76
2023/10/02 04:08:22;;;;;;;23.15;8.85;;;9.20;99.90;;;;;;5034473;28;20021;-75
2023/10/02 04:10:55;;;;;;;21.38;8.00;;;9.20;99.90;;;;;;5034508;28;20029;-75
2023/10/02 04:13:32;;;;;;;21.55;8.82;;;9.20;99.90;;;;;;5034704;28;20028;-75
2023/10/02 04:18:46;;;;;;;21.48;8.68;;;9.10;99.90;;;;;;5025046;28;20033;-75
2023/10/02 04:21:19;;;;;;;19.40;8.82;;;9.10;99.90;;;;;;5032085;28;20072;-75
2023/10/02 04:23:45;;;;;;;23.90;8.82;;;9.10;99.90;;;;;;5015475;28;20125;-76
2023/10/02 04:26:22;;;;;;;22.98;9.45;;;9.00;99.90;;;;;;5024404;28;20117;-75
2023/10/02 04:28:54;;;;;;;24.08;9.13;;;9.00;99.90;;;;;;4998175;28;20080;-75
2023/10/02 04:31:22;;;;;;;19.50;8.55;;;9.00;99.90;;;;;;5014375;28;20050;-75
2023/10/02 04:34:00;;;;;;;20.23;8.85;;;9.00;99.90;;;;;;5031238;28;20064;-75
2023/10/02 04:36:34;;;;;;;18.05;7.45;;;8.90;99.90;;;;;;5015074;28;20030;-75
2023/10/02 04:39:03;;;;;;;18.75;7.60;;;8.90;99.90;;;;;;5013996;28;20037;-75
2023/10/02 04:41:31;;;;;;;16.70;7.85;;;8.90;99.90;;;;;;5017816;28;20040;-75
2023/10/02 04:43:57;;;;;;;16.38;7.47;;;8.90;99.90;;;;;;4996032;28;20037;-75
2023/10/02 04:46:26;;;;;;;16.45;7.03;;;8.90;99.90;;;;;;5019447;28;20044;-76
2023/10/02 04:48:59;;;;;;;18.80;7.93;;;8.90;99.90;;;;;;5032135;28;20371;-75
2023/10/02 04:51:33;;;;;;;19.80;8.00;;;8.90;99.90;;;;;;5024942;28;20033;-75
2023/10/02 04:54:05;;;;;;;20.50;7.70;;;8.80;99.90;;;;;;5016598;28;20072;-76
2023/10/02 04:56:30;;;;;;;21.30;9.70;;;8.70;99.90;;;;;;5015248;28;20022;-75
2023/10/02 04:59:00;;;;;;;28.48;12.98;;;8.70;99.90;;;;;;5028188;28;20091;-75
2023/10/02 05:01:41;;;;;;;32.70;14.80;;;8.60;99.90;;;;;;5033276;28;20116;-75
2023/10/02 05:04:08;;;;;;;36.33;17.58;;;8.60;99.90;;;;;;5014041;28;20026;-75
2023/10/02 05:06:52;;;;;;;30.08;15.10;;;8.60;99.90;;;;;;5013683;28;20029;-75
2023/10/02 05:09:21;;;;;;;31.75;15.95;;;8.60;99.90;;;;;;5012120;28;20038;-75
2023/10/02 05:12:03;;;;;;;33.22;15.70;;;8.60;99.90;;;;;;5013736;28;20105;-75
2023/10/02 05:14:32;;;;;;;27.65;12.40;;;8.50;99.90;;;;;;5013888;28;20025;-75
2023/10/02 05:17:17;;;;;;;24.10;9.80;;;8.50;99.90;;;;;;5013692;28;20474;-75
2023/10/02 05:19:56;;;;;;;22.10;9.23;;;8.50;99.90;;;;;;5013695;28;20041;-75
2023/10/02 05:22:27;;;;;;;23.15;8.80;;;8.50;99.90;;;;;;5013561;28;20026;-75
2023/10/02 05:24:59;;;;;;;18.80;7.70;;;8.50;99.90;;;;;;5013551;28;20064;-75
2023/10/02 05:27:36;;;;;;;22.90;8.13;;;8.50;99.90;;;;;;5013840;28;20054;-74
2023/10/02 05:30:12;;;;;;;17.65;7.57;;;8.40;99.90;;;;;;5013371;28;20542;-75
2023/10/02 05:32:39;;;;;;;21.65;8.27;;;8.40;99.90;;;;;;5022614;28;20022;-75
2023/10/02 05:35:16;;;;;;;19.90;7.68;;;8.40;99.90;;;;;;5033297;28;20033;-75
2023/10/02 05:37:45;;;;;;;22.73;7.63;;;8.40;99.90;;;;;;5017001;28;20026;-75
2023/10/02 05:43:09;;;;;;;20.20;8.07;;;8.50;99.90;;;;;;5016649;28;20025;-75
2023/10/02 05:45:47;;;;;;;19.17;8.23;;;8.50;99.90;;;;;;5033066;28;20084;-75
2023/10/02 05:48:27;;;;;;;20.02;7.70;;;8.50;99.90;;;;;;5033019;28;20037;-74
2023/10/02 05:51:09;;;;;;;22.40;9.52;;;8.50;99.90;;;;;;5033226;28;20026;-75
2023/10/02 05:53:37;;;;;;;23.48;9.45;;;8.50;99.90;;;;;;5032908;28;20033;-75
2023/10/02 05:58:37;;;;;;;24.45;9.80;;;8.50;99.90;;;;;;5036879;28;20026;-75
2023/10/02 06:01:05;;;;;;;26.02;9.95;;;8.50;99.90;;;;;;5018903;28;20156;-75
2023/10/02 06:03:34;;;;;;;25.70;9.02;;;8.60;99.90;;;;;;5037001;28;20032;-75
2023/10/02 06:06:15;;;;;;;25.60;8.98;;;8.60;99.90;;;;;;5036920;28;20034;-75
2023/10/02 06:08:43;;;;;;;19.25;7.88;;;8.60;99.90;;;;;;5036606;28;20477;-75
2023/10/02 06:11:25;;;;;;;21.83;8.68;;;8.60;99.90;;;;;;5036445;28;20061;-75
2023/10/02 06:14:09;;;;;;;21.35;8.95;;;8.60;99.90;;;;;;5036781;28;20021;-75
2023/10/02 06:16:41;;;;;;;21.13;8.32;;;8.70;99.90;;;;;;5036999;28;20034;-75
2023/10/02 06:19:13;;;;;;;22.83;8.13;;;8.70;99.90;;;;;;5036557;28;20104;-75
2023/10/02 06:21:45;;;;;;;;;;;8.70;99.90;;;;;;5037859;28;20032;-75
2023/10/02 06:24:18;;;;;;;23.83;9.52;;;8.80;99.90;;;;;;5036218;28;19932;-75
2023/10/02 06:26:57;;;;;;;26.83;8.77;;;8.80;99.90;;;;;;5036210;28;20036;-75
2023/10/02 06:29:32;;;;;;;21.25;8.55;;;8.80;99.90;;;;;;5018440;28;20102;-75
2023/10/02 06:32:11;;;;;;;21.63;8.85;;;8.90;99.90;;;;;;5036133;28;20023;-75
2023/10/02 06:34:39;;;;;;;21.95;8.70;;;8.90;99.90;;;;;;5036256;28;20037;-75
2023/10/02 06:37:07;;;;;;;27.33;9.07;;;8.90;99.90;;;;;;5018229;28;20033;-74
2023/10/02 06:39:36;;;;;;;24.55;9.38;;;9.00;99.90;;;;;;5035537;28;20046;-76
2023/10/02 06:42:15;;;;;;;20.75;8.82;;;9.10;99.90;;;;;;5036576;28;20421;-75
2023/10/02 06:44:53;;;;;;;25.13;9.02;;;9.10;99.90;;;;;;5035908;28;20057;-76
2023/10/02 06:47:22;;;;;;;26.58;9.82;;;9.20;99.90;;;;;;5018143;28;20084;-76
2023/10/02 06:49:51;;;;;;;26.88;10.05;;;9.30;99.90;;;;;;5035686;28;20053;-76
2023/10/02 06:52:20;;;;;;;27.23;9.60;;;9.30;99.90;;;;;;5035808;28;20040;-76
2023/10/02 06:54:49;;;;;;;26.85;10.57;;;9.40;99.90;;;;;;5035559;28;20385;-76
2023/10/02 06:57:18;;;;;;;26.30;10.43;;;9.40;99.90;;;;;;5017711;28;20469;-76
2023/10/02 06:59:51;;;;;;;27.10;10.82;;;9.50;99.90;;;;;;5035854;28;20466;-76
2023/10/02 07:02:20;;;;;;;24.55;10.02;;;9.60;99.90;;;;;;5035619;28;20048;-76
2023/10/02 07:04:48;;;;;;;25.63;10.25;;;9.60;99.90;;;;;;5035736;28;20064;-76
2023/10/02 07:07:16;;;;;;;24.80;9.75;;;9.80;99.90;;;;;;5034753;28;20034;-75
2023/10/02 07:09:43;;;;;;;22.80;9.73;;;9.80;99.90;;;;;;5035184;28;20109;-76
2023/10/02 07:12:13;;;;;;;23.83;10.10;;;9.90;99.90;;;;;;5035668;28;20032;-77
2023/10/02 07:14:41;;;;;;;24.27;9.82;;;10.00;99.90;;;;;;5036695;28;20055;-77
2023/10/02 07:17:16;;;;;;;26.20;9.95;;;10.10;99.90;;;;;;5037021;28;20026;-78
2023/10/02 07:19:50;;;;;;;21.92;9.40;;;10.20;99.90;;;;;;5038310;28;20394;-77
2023/10/02 07:22:23;;;;;;;28.42;10.75;;;10.30;99.90;;;;;;5037356;28;20032;-77
2023/10/02 07:24:55;;;;;;;30.17;11.27;;;10.40;99.90;;;;;;5036059;28;20033;-78
2023/10/02 07:27:24;;;;;;;30.30;10.98;;;10.50;99.90;;;;;;5037554;28;20040;-78
2023/10/02 07:29:53;;;;;;;29.75;11.00;;;10.60;99.90;;;;;;5038014;28;20021;-78
2023/10/02 07:32:20;;;;;;;26.88;10.57;;;10.70;99.90;;;;;;5036734;28;20025;-76
2023/10/02 07:34:47;;;;;;;28.42;10.20;;;10.80;99.90;;;;;;5035107;28;20421;-76
2023/10/02 07:37:15;;;;;;;24.98;10.25;;;10.90;99.90;;;;;;5017742;28;20028;-77
2023/10/02 07:39:42;;;;;;;28.13;10.23;;;11.00;99.90;;;;;;5034654;28;20103;-77
2023/10/02 07:42:10;;;;;;;29.92;10.10;;;11.20;99.90;;;;;;5035212;28;20029;-78
2023/10/02 07:44:36;;;;;;;26.05;10.80;;;11.30;99.90;;;;;;5035493;28;20034;-76
2023/10/02 07:47:18;;;;;;;27.92;12.32;;;11.40;99.90;;;;;;5034803;28;20504;-77
2023/10/02 07:49:48;;;;;;;25.35;9.93;;;11.50;99.90;;;;;;5034812;28;20112;-78
2023/10/02 07:52:42;;;;;;;23.92;9.82;;;11.60;99.90;;;;;;5017695;28;20076;-77
2023/10/02 07:55:10;;;;;;;26.13;10.55;;;11.70;99.90;;;;;;5017263;28;20028;-77
2023/10/02 07:57:36;;;;;;;30.38;11.32;;;11.90;99.90;;;;;;5035073;28;20025;-76
2023/10/02 08:00:33;;;;;;;28.25;12.13;;;12.10;99.90;;;;;;5017595;28;20041;-76
2023/10/02 08:02:55;;;;;;;28.67;11.98;;;12.30;99.90;;;;;;5022089;28;20034;-77
2023/10/02 08:05:21;;;;;;;30.27;11.82;;;12.40;99.90;;;;;;5036607;28;20045;-77
2023/10/02 08:07:47;;;;;;;30.55;11.88;;;12.50;99.90;;;;;;5035104;28;20457;-76
2023/10/02 08:10:15;;;;;;;26.67;11.10;;;12.70;99.90;;;;;;5035080;28;20114;-77
2023/10/02 08:12:54;;;;;;;29.52;12.18;;;12.80;99.90;;;;;;5035418;28;20021;-77
2023/10/02 08:15:26;;;;;;;26.48;11.77;;;12.90;99.90;;;;;;5035220;28;20021;-77
2023/10/02 08:20:32;;;;;;;26.73;11.95;;;13.30;99.90;;;;;;5035651;28;20022;-77
2023/10/02 08:23:01;;;;;;;29.33;11.23;;;13.40;99.90;;;;;;5035307;28;20363;-77
2023/10/02 08:25:27;;;;;;;28.25;10.50;;;13.50;99.90;;;;;;5035141;28;20021;-77
2023/10/02 08:27:55;;;;;;;27.35;10.80;;;13.70;99.90;;;;;;5035545;28;20030;-77
2023/10/02 08:30:31;;;;;;;27.67;11.00;;;13.80;99.90;;;;;;5034981;28;20025;-78
2023/10/02 08:33:18;;;;;;;23.33;9.90;;;13.90;99.90;;;;;;5034609;28;20022;-77
2023/10/02 08:35:46;;;;;;;27.85;10.65;;;14.10;99.90;;;;;;5017519;28;20427;-77
2023/10/02 08:38:25;;;;;;;31.80;12.65;;;14.20;99.90;;;;;;5034925;28;20029;-77
2023/10/02 08:41:02;;;;;;;31.02;13.02;;;14.30;99.90;;;;;;5035129;28;20084;-77
2023/10/02 08:43:29;;;;;;;28.48;12.52;;;14.40;99.90;;;;;;5035054;28;20028;-77
2023/10/02 08:45:59;;;;;;;32.25;14.23;;;14.60;99.90;;;;;;5035548;28;20033;-77
2023/10/02 08:48:25;;;;;;;31.83;14.05;;;14.70;99.90;;;;;;5034818;28;20489;-77
2023/10/02 08:50:58;;;;;;;31.75;13.63;;;14.90;99.90;;;;;;5035013;28;20029;-77
2023/10/02 08:53:25;;;;;;;31.27;14.45;;;15.00;99.90;;;;;;5017902;28;20108;-77
2023/10/02 08:56:05;;;;;;;35.47;14.18;;;15.20;99.90;;;;;;5034736;28;20548;-77
2023/10/02 08:58:31;;;;;;;32.80;14.23;;;15.30;99.90;;;;;;5034786;28;20036;-77
2023/10/02 09:03:41;;;;;;;32.15;12.82;;;15.50;99.90;;;;;;5034841;28;20065;-77
2023/10/02 09:11:36;;;;;;;26.60;11.82;;;16.00;99.90;;;;;;5034586;28;20485;-77
2023/10/02 09:17:07;;;;;;;29.40;13.20;;;16.30;99.90;;;;;;5034875;28;20109;-77
2023/10/02 09:19:37;;;;;;;33.55;13.55;;;16.40;99.90;;;;;;5038409;28;20044;-79
2023/10/02 09:22:07;;;;;;;33.00;13.30;;;16.50;99.90;;;;;;5040695;28;20029;-79
2023/10/02 09:24:41;;;;;;;33.13;12.85;;;16.70;99.90;;;;;;5040260;28;20421;-80
2023/10/02 09:27:26;;;;;;;27.98;12.10;;;16.80;99.90;;;;;;5040035;28;20025;-79
2023/10/02 09:33:08;;;;;;;28.90;12.18;;;17.10;99.90;;;;;;5022359;28;20038;-79
2023/10/02 09:35:44;;;;;;;21.88;10.52;;;17.30;99.90;;;;;;5045015;28;20041;-79
2023/10/02 09:38:13;;;;;;;22.67;10.77;;;17.40;99.90;;;;;;5043191;28;20018;-77
2023/10/02 09:43:30;;;;;;;29.83;12.60;;;17.70;99.90;;;;;;5038987;28;20064;-78
2023/10/02 09:46:05;;;;;;;25.83;11.73;;;17.80;99.90;;;;;;5038473;28;20025;-77
2023/10/02 09:52:09;;;;;;;26.70;12.07;;;18.10;99.90;;;;;;5037621;28;20461;-77
2023/10/02 09:55:03;;;;;;;28.05;12.45;;;18.20;99.90;;;;;;5023824;28;20034;-79
2023/10/02 09:57:36;;;;;;;28.17;12.38;;;18.30;99.90;;;;;;5044717;28;20022;-80
2023/10/02 10:00:33;;;;;;;26.13;11.20;;;18.50;99.90;;;;;;5044065;28;20041;-79
2023/10/02 10:03:24;;;;;;;26.03;11.63;;;18.60;99.90;;;;;;5044588;28;20485;-79
2023/10/02 10:06:08;;;;;;;24.40;10.93;;;18.80;99.90;;;;;;5044985;28;20294;-79
2023/10/02 10:11:43;;;;;;;25.80;11.35;;;19.00;99.90;;;;;;5043380;28;20060;-79
2023/10/02 10:14:37;;;;;;;27.70;12.93;;;19.10;99.90;;;;;;5047311;28;20036;-79
2023/10/02 10:17:49;;;;;;;29.58;12.50;;;19.20;99.90;;;;;;5034661;28;20025;-79
2023/10/02 10:20:22;;;;;;;27.20;11.48;;;19.30;99.90;;;;;;5043365;28;20101;-79
2023/10/02 10:22:55;;;;;;;25.02;11.25;;;19.40;99.90;;;;;;5043006;28;20020;-79
2023/10/02 10:28:00;;;;;;;23.38;10.88;;;19.80;99.90;;;;;;5043285;28;20033;-79
2023/10/02 10:30:33;;;;;;;22.63;11.65;;;19.90;99.90;;;;;;5042784;28;20037;-78
2023/10/02 10:33:15;;;;;;;24.45;11.38;;;20.00;99.90;;;;;;5041539;28;20022;-78
2023/10/02 10:35:49;;;;;;;23.08;10.68;;;20.10;99.90;;;;;;5040046;28;20037;-80
2023/10/02 10:38:25;;;;;;;22.63;11.35;;;20.20;99.90;;;;;;5022203;28;20032;-79
2023/10/02 10:40:55;;;;;;;21.20;10.43;;;20.40;99.90;;;;;;5038518;28;20366;-80
2023/10/02 10:44:07;;;;;;;26.33;11.98;;;20.50;99.90;;;;;;5021994;28;20327;-84
2023/10/02 10:46:16;;;;;;;23.55;10.82;;;20.50;99.90;;;;;;5028801;28;20401;-79
2023/10/02 10:48:45;;;;;;;25.00;11.35;;;20.60;99.90;;;;;;5039704;28;20029;-82
2023/10/02 10:51:20;;;;;;;25.90;12.52;;;20.70;99.90;;;;;;5039437;28;20091;-79
2023/10/02 10:53:54;;;;;;;21.52;10.57;;;20.80;99.90;;;;;;5022214;28;20125;-79
2023/10/02 10:56:22;;;;;;;26.48;11.13;;;20.90;99.90;;;;;;5038419;28;20037;-77
2023/10/02 10:58:53;;;;;;;26.58;12.35;;;21.00;99.90;;;;;;5039075;28;20025;-77
2023/10/02 11:01:22;;;;;;;25.52;11.77;;;21.10;99.90;;;;;;5035576;28;20086;-77
2023/10/02 11:03:58;;;;;;;24.88;11.50;;;21.20;99.90;;;;;;5035491;28;20480;-75
2023/10/02 11:06:24;;;;;;;26.35;11.52;;;21.30;99.90;;;;;;5034704;28;20072;-76
2023/10/02 11:09:16;;;;;;;23.45;11.57;;;21.30;99.90;;;;;;5034095;28;20471;-76
2023/10/02 11:11:52;;;;;;;23.17;11.45;;;21.40;99.90;;;;;;5035448;28;20080;-76
2023/10/02 11:14:34;;;;;;;25.55;11.77;;;21.50;99.90;;;;;;5035745;28;20056;-76
2023/10/02 11:17:04;;;;;;;24.05;11.20;;;21.60;99.90;;;;;;5035418;28;20560;-76
2023/10/02 11:22:03;;;;;;;24.17;11.98;;;21.80;99.90;;;;;;5035307;28;20030;-76
2023/10/02 11:24:29;;;;;;;26.23;12.05;;;21.90;99.90;;;;;;5035092;28;20025;-76
2023/10/02 11:27:10;;;;;;;27.48;13.15;;;22.00;99.90;;;;;;5035148;28;20064;-76
2023/10/02 11:29:42;;;;;;;;;;;22.10;99.90;;;;;;5035430;28;20432;-76
2023/10/02 11:32:22;;;;;;;24.27;11.57;;;22.10;99.90;;;;;;5035513;28;19905;-76
2023/10/02 11:34:59;;;;;;;23.00;11.87;;;22.20;99.90;;;;;;5034969;28;20053;-77
2023/10/02 11:37:26;;;;;;;24.05;11.65;;;22.30;99.90;;;;;;5035057;28;20555;-77
2023/10/02 11:39:54;;;;;;;22.88;11.15;;;22.40;99.90;;;;;;5016912;28;20402;-77
2023/10/02 11:42:20;;;;;;;22.83;10.95;;;22.50;99.90;;;;;;5035087;28;20036;-77
2023/10/02 11:44:46;;;;;;;21.38;10.98;;;22.70;99.90;;;;;;5034803;28;20366;-77
2023/10/02 11:47:12;;;;;;;24.05;12.38;;;22.70;99.90;;;;;;5017060;28;20397;-77
2023/10/02 11:49:39;;;;;;;22.08;10.70;;;22.90;99.90;;;;;;5034612;28;20499;-77
2023/10/02 11:52:06;;;;;;;25.70;12.05;;;23.00;99.90;;;;;;5034405;28;20025;-77
2023/10/02 11:54:39;;;;;;;22.38;11.55;;;23.10;99.90;;;;;;5034398;28;20029;-77
2023/10/02 11:57:08;;;;;;;23.30;10.60;;;23.20;99.90;;;;;;5034879;28;20021;-77
2023/10/02 11:59:39;;;;;;;23.35;11.27;;;23.20;99.90;;;;;;5034444;28;20029;-77
2023/10/02 12:02:04;;;;;;;20.92;10.43;;;23.30;99.80;;;;;;5034479;28;20370;-77
2023/10/02 12:04:31;;;;;;;20.38;9.88;;;23.40;99.90;;;;;;5034516;28;20036;-75
2023/10/02 12:06:58;;;;;;;21.58;10.57;;;23.50;99.90;;;;;;5034716;28;20091;-75
2023/10/02 12:09:24;;;;;;;21.20;10.55;;;23.60;99.80;;;;;;5034025;28;20474;-76
2023/10/02 12:11:50;;;;;;;19.73;9.98;;;23.60;98.40;;;;;;5034324;28;20040;-75
2023/10/02 12:14:16;;;;;;;19.45;9.90;;;23.70;99.50;;;;;;5035081;28;20025;-75
2023/10/02 12:16:42;;;;;;;18.85;10.18;;;23.90;99.00;;;;;;5029178;28;20025;-75
2023/10/02 12:19:13;;;;;;;20.38;10.25;;;24.00;98.10;;;;;;5023906;28;20037;-75
2023/10/02 12:21:39;;;;;;;22.13;9.95;;;24.10;98.90;;;;;;5028949;28;20037;-75
2023/10/02 12:24:07;;;;;;;20.83;9.57;;;24.20;98.70;;;;;;5033754;28;20033;-76
2023/10/02 12:26:33;;;;;;;19.90;9.90;;;24.40;98.00;;;;;;5034802;28;20113;-75
2023/10/02 12:29:00;;;;;;;20.42;9.80;;;24.50;98.70;;;;;;5016247;28;20109;-76
2023/10/02 12:31:26;;;;;;;19.45;10.02;;;24.50;97.80;;;;;;5033827;28;20075;-75
2023/10/02 12:33:52;;;;;;;19.75;9.27;;;24.60;97.50;;;;;;5033879;28;20030;-76
2023/10/02 12:36:21;;;;;;;18.05;9.57;;;24.70;96.40;;;;;;5034030;28;20120;-75
2023/10/02 12:38:49;;;;;;;20.25;10.05;;;24.80;96.90;;;;;;5033392;28;20440;-75
2023/10/02 12:41:30;;;;;;;21.08;10.27;;;24.90;97.30;;;;;;5033791;28;20025;-76
2023/10/02 12:43:56;;;;;;;22.85;10.57;;;25.00;96.70;;;;;;5033873;28;20037;-75
2023/10/02 12:46:27;;;;;;;23.10;10.02;;;25.10;95.90;;;;;;5033692;28;20482;-76
2023/10/02 12:48:55;;;;;;;21.05;10.15;;;25.00;96.60;;;;;;5033550;28;20025;-76
2023/10/02 12:51:21;;;;;;;19.88;9.80;;;25.10;96.20;;;;;;5033582;28;20053;-76
2023/10/02 12:53:47;;;;;;;19.60;9.77;;;25.20;96.40;;;;;;5033386;28;20029;-76
2023/10/02 12:56:20;;;;;;;19.38;9.85;;;25.30;97.10;;;;;;5033827;28;20026;-76
2023/10/02 12:58:51;;;;;;;23.95;11.02;;;25.40;94.80;;;;;;5033829;28;20022;-76
2023/10/02 13:01:24;;;;;;;21.27;10.63;;;25.40;94.40;;;;;;5033602;28;20048;-75
2023/10/02 13:03:54;;;;;;;19.90;9.93;;;25.40;94.20;;;;;;5032875;28;20110;-75
2023/10/02 13:06:22;;;;;;;19.83;10.30;;;25.40;95.00;;;;;;5033513;28;20037;-76
2023/10/02 13:08:48;;;;;;;17.95;9.05;;;25.40;93.70;;;;;;5032981;28;20038;-75
2023/10/02 13:11:18;;;;;;;16.98;7.65;;;25.40;92.10;;;;;;5033468;28;20022;-76
2023/10/02 13:13:46;;;;;;;17.00;8.02;;;25.30;90.80;;;;;;5033401;28;20025;-76
2023/10/02 13:16:24;;;;;;;12.07;6.40;;;25.30;89.40;;;;;;5033515;28;20017;-76
2023/10/02 13:18:55;;;;;;;13.57;7.15;;;25.30;86.30;;;;;;5033923;28;20039;-76
2023/10/02 13:21:21;;;;;;;14.48;6.78;;;25.40;85.30;;;;;;5033814;28;20029;-76
2023/10/02 13:23:48;;;;;;;29.92;12.50;;;25.40;85.30;;;;;;5032965;28;20030;-76
2023/10/02 13:26:16;;;;;;;26.42;10.82;;;25.40;88.10;;;;;;5033524;28;20033;-76
2023/10/02 13:28:48;;;;;;;24.63;10.85;;;25.50;87.80;;;;;;5033130;28;20025;-76
2023/10/02 13:31:16;;;;;;;18.60;9.18;;;25.60;88.00;;;;;;5033213;28;20030;-76
2023/10/02 13:33:51;;;;;;;18.42;10.15;;;25.70;88.40;;;;;;5032880;28;20022;-76
2023/10/02 13:36:22;;;;;;;19.75;9.52;;;25.60;87.10;;;;;;5033182;28;20030;-74
2023/10/02 13:38:54;;;;;;;;;;;25.70;88.00;;;;;;5033865;28;20029;-75
2023/10/02 13:41:21;;;;;;;20.90;10.98;;;25.70;91.50;;;;;;5033105;28;20361;-75
2023/10/02 13:43:52;;;;;;;19.88;9.52;;;25.70;91.70;;;;;;5033106;28;20033;-75
2023/10/02 13:46:20;;;;;;;22.38;10.48;;;25.80;91.10;;;;;;5033628;28;20021;-75
2023/10/02 13:48:47;;;;;;;21.08;10.13;;;25.90;91.50;;;;;;5033200;28;20029;-75